sensor_id;sensor_type;location;lat;lon;timestamp;P1;durP1;ratioP1;P2;durP2;ratioP2
45039;SDS011;30778;53.574;7.770;2022-09-30T00:01:06;1.30;;;0.60;;
45039;SDS011;30778;53.574;7.770;2022-09-30T00:03:32;0.90;;;0.50;;
45039;SDS011;30778;53.574;7.770;2022-09-30T00:05:58;2.50;;;1.15;;
45039;SDS011;30778;53.574;7.770;2022-09-30T00:08:25;1.38;;;0.70;;
45039;SDS011;30778;53.574;7.770;2022-09-30T00:11:00;1.33;;;0.80;;
45039;SDS011;30778;53.574;7.770;2022-09-30T00:13:30;4.75;;;0.85;;
45039;SDS011;30778;53.574;7.770;2022-09-30T00:15:58;3.38;;;1.38;;
45039;SDS011;30778;53.574;7.770;2022-09-30T00:18:24;2.47;;;1.55;;
45039;SDS011;30778;53.574;7.770;2022-09-30T00:20:50;4.13;;;1.30;;
45039;SDS011;30778;53.574;7.770;2022-09-30T00:23:17;2.17;;;1.58;;
45039;SDS011;30778;53.574;7.770;2022-09-30T00:25:45;5.18;;;1.27;;
45039;SDS011;30778;53.574;7.770;2022-09-30T00:28:10;1.45;;;0.90;;
45039;SDS011;30778;53.574;7.770;2022-09-30T00:30:36;2.83;;;1.40;;
45039;SDS011;30778;53.574;7.770;2022-09-30T00:33:01;1.80;;;1.23;;
45039;SDS011;30778;53.574;7.770;2022-09-30T00:35:27;2.22;;;1.60;;
45039;SDS011;30778;53.574;7.770;2022-09-30T00:37:52;2.00;;;1.42;;
45039;SDS011;30778;53.574;7.770;2022-09-30T00:40:19;3.20;;;1.75;;
45039;SDS011;30778;53.574;7.770;2022-09-30T00:42:45;2.22;;;1.80;;
45039;SDS011;30778;53.574;7.770;2022-09-30T00:45:10;3.10;;;2.45;;
45039;SDS011;30778;53.574;7.770;2022-09-30T00:47:56;2.58;;;1.42;;
45039;SDS011;30778;53.574;7.770;2022-09-30T00:50:34;2.15;;;1.17;;
45039;SDS011;30778;53.574;7.770;2022-09-30T00:55:40;2.38;;;1.58;;
45039;SDS011;30778;53.574;7.770;2022-09-30T00:58:11;2.90;;;1.55;;
45039;SDS011;30778;53.574;7.770;2022-09-30T01:00:42;2.85;;;1.77;;
45039;SDS011;30778;53.574;7.770;2022-09-30T01:03:08;1.95;;;1.20;;
45039;SDS011;30778;53.574;7.770;2022-09-30T01:05:33;2.95;;;1.90;;
45039;SDS011;30778;53.574;7.770;2022-09-30T01:07:59;3.30;;;2.08;;
45039;SDS011;30778;53.574;7.770;2022-09-30T01:10:28;4.68;;;1.67;;
45039;SDS011;30778;53.574;7.770;2022-09-30T01:12:54;2.88;;;1.38;;
45039;SDS011;30778;53.574;7.770;2022-09-30T01:15:20;3.85;;;2.00;;
45039;SDS011;30778;53.574;7.770;2022-09-30T01:18:04;2.90;;;1.42;;
45039;SDS011;30778;53.574;7.770;2022-09-30T01:26:35;1.80;;;1.17;;
45039;SDS011;30778;53.574;7.770;2022-09-30T01:29:12;2.60;;;1.80;;
45039;SDS011;30778;53.574;7.770;2022-09-30T01:45:08;2.03;;;1.40;;
45039;SDS011;30778;53.574;7.770;2022-09-30T01:47:45;2.42;;;0.95;;
45039;SDS011;30778;53.574;7.770;2022-09-30T01:53:06;1.70;;;0.90;;
45039;SDS011;30778;53.574;7.770;2022-09-30T01:55:40;6.30;;;1.40;;
45039;SDS011;30778;53.574;7.770;2022-09-30T01:58:31;2.47;;;1.05;;
45039;SDS011;30778;53.574;7.770;2022-09-30T02:01:05;1.83;;;0.95;;
45039;SDS011;30778;53.574;7.770;2022-09-30T02:03:36;1.40;;;0.60;;
45039;SDS011;30778;53.574;7.770;2022-09-30T02:06:07;2.25;;;1.35;;
45039;SDS011;30778;53.574;7.770;2022-09-30T02:11:17;1.98;;;1.08;;
45039;SDS011;30778;53.574;7.770;2022-09-30T02:16:25;4.47;;;0.90;;
45039;SDS011;30778;53.574;7.770;2022-09-30T02:18:59;1.38;;;0.60;;
45039;SDS011;30778;53.574;7.770;2022-09-30T02:21:33;4.90;;;1.17;;
45039;SDS011;30778;53.574;7.770;2022-09-30T02:24:04;2.95;;;0.77;;
45039;SDS011;30778;53.574;7.770;2022-09-30T02:26:38;1.85;;;0.50;;
45039;SDS011;30778;53.574;7.770;2022-09-30T02:29:07;1.60;;;0.80;;
45039;SDS011;30778;53.574;7.770;2022-09-30T02:31:41;3.83;;;0.98;;
45039;SDS011;30778;53.574;7.770;2022-09-30T02:34:11;1.88;;;0.70;;
45039;SDS011;30778;53.574;7.770;2022-09-30T02:39:47;1.33;;;0.50;;
45039;SDS011;30778;53.574;7.770;2022-09-30T02:42:22;1.33;;;0.68;;
45039;SDS011;30778;53.574;7.770;2022-09-30T02:44:53;3.35;;;0.95;;
45039;SDS011;30778;53.574;7.770;2022-09-30T02:47:40;4.07;;;0.95;;
45039;SDS011;30778;53.574;7.770;2022-09-30T02:58:39;1.50;;;0.90;;
45039;SDS011;30778;53.574;7.770;2022-09-30T03:01:11;2.30;;;0.70;;
45039;SDS011;30778;53.574;7.770;2022-09-30T03:06:15;1.42;;;0.90;;
45039;SDS011;30778;53.574;7.770;2022-09-30T03:08:41;2.08;;;0.90;;
45039;SDS011;30778;53.574;7.770;2022-09-30T03:11:09;1.33;;;0.63;;
45039;SDS011;30778;53.574;7.770;2022-09-30T03:35:46;0.70;;;0.43;;
45039;SDS011;30778;53.574;7.770;2022-09-30T03:38:23;1.63;;;0.88;;
45039;SDS011;30778;53.574;7.770;2022-09-30T03:43:30;3.17;;;1.00;;
45039;SDS011;30778;53.574;7.770;2022-09-30T03:46:05;2.55;;;0.90;;
45039;SDS011;30778;53.574;7.770;2022-09-30T03:48:34;3.17;;;0.63;;
45039;SDS011;30778;53.574;7.770;2022-09-30T03:51:02;2.47;;;0.73;;
45039;SDS011;30778;53.574;7.770;2022-09-30T03:53:29;2.03;;;0.70;;
45039;SDS011;30778;53.574;7.770;2022-09-30T03:56:02;1.48;;;0.50;;
45039;SDS011;30778;53.574;7.770;2022-09-30T03:58:27;1.08;;;0.50;;
45039;SDS011;30778;53.574;7.770;2022-09-30T04:00:53;3.83;;;0.82;;
45039;SDS011;30778;53.574;7.770;2022-09-30T04:03:21;1.98;;;0.82;;
45039;SDS011;30778;53.574;7.770;2022-09-30T04:05:47;4.63;;;0.50;;
45039;SDS011;30778;53.574;7.770;2022-09-30T04:08:13;4.43;;;1.10;;
45039;SDS011;30778;53.574;7.770;2022-09-30T04:10:39;5.28;;;1.15;;
45039;SDS011;30778;53.574;7.770;2022-09-30T04:13:08;1.77;;;0.85;;
45039;SDS011;30778;53.574;7.770;2022-09-30T04:15:35;1.20;;;0.63;;
45039;SDS011;30778;53.574;7.770;2022-09-30T04:18:01;4.53;;;1.17;;
45039;SDS011;30778;53.574;7.770;2022-09-30T04:20:28;3.00;;;1.00;;
45039;SDS011;30778;53.574;7.770;2022-09-30T04:22:58;2.90;;;0.63;;
45039;SDS011;30778;53.574;7.770;2022-09-30T04:25:25;2.80;;;1.02;;
45039;SDS011;30778;53.574;7.770;2022-09-30T04:27:52;4.15;;;0.95;;
45039;SDS011;30778;53.574;7.770;2022-09-30T04:30:20;6.18;;;1.02;;
45039;SDS011;30778;53.574;7.770;2022-09-30T04:32:45;1.80;;;1.20;;
45039;SDS011;30778;53.574;7.770;2022-09-30T04:35:11;3.05;;;1.20;;
45039;SDS011;30778;53.574;7.770;2022-09-30T04:37:44;2.72;;;1.67;;
45039;SDS011;30778;53.574;7.770;2022-09-30T04:40:11;2.35;;;1.20;;
45039;SDS011;30778;53.574;7.770;2022-09-30T04:42:39;4.82;;;1.58;;
45039;SDS011;30778;53.574;7.770;2022-09-30T04:45:10;2.65;;;1.20;;
45039;SDS011;30778;53.574;7.770;2022-09-30T04:47:38;3.65;;;1.00;;
45039;SDS011;30778;53.574;7.770;2022-09-30T04:50:08;4.22;;;1.30;;
45039;SDS011;30778;53.574;7.770;2022-09-30T04:52:34;2.13;;;1.33;;
45039;SDS011;30778;53.574;7.770;2022-09-30T04:55:00;2.22;;;1.20;;
45039;SDS011;30778;53.574;7.770;2022-09-30T04:57:26;2.58;;;1.27;;
45039;SDS011;30778;53.574;7.770;2022-09-30T04:59:52;3.83;;;0.77;;
45039;SDS011;30778;53.574;7.770;2022-09-30T05:02:17;2.25;;;1.13;;
45039;SDS011;30778;53.574;7.770;2022-09-30T05:04:43;1.70;;;1.42;;
45039;SDS011;30778;53.574;7.770;2022-09-30T05:07:09;2.10;;;1.48;;
45039;SDS011;30778;53.574;7.770;2022-09-30T05:09:35;2.40;;;1.40;;
45039;SDS011;30778;53.574;7.770;2022-09-30T05:12:01;2.97;;;2.17;;
45039;SDS011;30778;53.574;7.770;2022-09-30T05:14:27;3.80;;;1.40;;
45039;SDS011;30778;53.574;7.770;2022-09-30T05:16:54;2.47;;;1.90;;
45039;SDS011;30778;53.574;7.770;2022-09-30T05:19:20;2.65;;;1.63;;
45039;SDS011;30778;53.574;7.770;2022-09-30T05:21:45;2.25;;;1.20;;
45039;SDS011;30778;53.574;7.770;2022-09-30T05:24:11;3.53;;;1.73;;
45039;SDS011;30778;53.574;7.770;2022-09-30T05:26:38;4.47;;;2.20;;
45039;SDS011;30778;53.574;7.770;2022-09-30T05:29:04;3.53;;;2.63;;
45039;SDS011;30778;53.574;7.770;2022-09-30T05:31:34;4.35;;;2.40;;
45039;SDS011;30778;53.574;7.770;2022-09-30T05:34:00;4.03;;;2.50;;
45039;SDS011;30778;53.574;7.770;2022-09-30T05:36:26;4.88;;;2.78;;
45039;SDS011;30778;53.574;7.770;2022-09-30T05:38:52;3.70;;;2.97;;
45039;SDS011;30778;53.574;7.770;2022-09-30T05:41:18;5.65;;;3.83;;
45039;SDS011;30778;53.574;7.770;2022-09-30T05:43:48;5.78;;;4.93;;
45039;SDS011;30778;53.574;7.770;2022-09-30T05:46:14;11.05;;;4.07;;
45039;SDS011;30778;53.574;7.770;2022-09-30T05:48:42;6.07;;;4.35;;
45039;SDS011;30778;53.574;7.770;2022-09-30T05:51:07;7.80;;;4.15;;
45039;SDS011;30778;53.574;7.770;2022-09-30T05:53:35;6.18;;;3.92;;
45039;SDS011;30778;53.574;7.770;2022-09-30T05:56:06;9.60;;;4.75;;
45039;SDS011;30778;53.574;7.770;2022-09-30T05:58:33;6.63;;;4.10;;
45039;SDS011;30778;53.574;7.770;2022-09-30T06:01:05;7.40;;;4.65;;
45039;SDS011;30778;53.574;7.770;2022-09-30T06:03:35;5.72;;;3.95;;
45039;SDS011;30778;53.574;7.770;2022-09-30T06:06:02;5.70;;;4.55;;
45039;SDS011;30778;53.574;7.770;2022-09-30T06:08:30;6.13;;;4.60;;
45039;SDS011;30778;53.574;7.770;2022-09-30T06:10:55;6.40;;;4.97;;
45039;SDS011;30778;53.574;7.770;2022-09-30T06:13:24;9.35;;;5.43;;
45039;SDS011;30778;53.574;7.770;2022-09-30T06:16:08;6.05;;;4.82;;
45039;SDS011;30778;53.574;7.770;2022-09-30T06:18:35;10.57;;;5.78;;
45039;SDS011;30778;53.574;7.770;2022-09-30T06:21:02;9.43;;;5.78;;
45039;SDS011;30778;53.574;7.770;2022-09-30T06:23:30;8.85;;;4.88;;
45039;SDS011;30778;53.574;7.770;2022-09-30T06:25:56;5.53;;;4.38;;
45039;SDS011;30778;53.574;7.770;2022-09-30T06:28:22;10.10;;;4.90;;
45039;SDS011;30778;53.574;7.770;2022-09-30T06:30:48;10.35;;;5.10;;
45039;SDS011;30778;53.574;7.770;2022-09-30T06:33:14;5.88;;;5.22;;
45039;SDS011;30778;53.574;7.770;2022-09-30T06:35:40;4.60;;;4.20;;
45039;SDS011;30778;53.574;7.770;2022-09-30T06:38:07;4.93;;;4.13;;
45039;SDS011;30778;53.574;7.770;2022-09-30T06:40:35;4.75;;;4.15;;
45039;SDS011;30778;53.574;7.770;2022-09-30T06:43:02;7.53;;;4.07;;
45039;SDS011;30778;53.574;7.770;2022-09-30T06:45:28;5.57;;;5.07;;
45039;SDS011;30778;53.574;7.770;2022-09-30T06:48:01;7.53;;;4.28;;
45039;SDS011;30778;53.574;7.770;2022-09-30T06:50:28;7.50;;;4.75;;
45039;SDS011;30778;53.574;7.770;2022-09-30T06:52:58;4.50;;;4.10;;
45039;SDS011;30778;53.574;7.770;2022-09-30T06:55:25;4.60;;;3.78;;
45039;SDS011;30778;53.574;7.770;2022-09-30T06:57:51;5.15;;;3.25;;
45039;SDS011;30778;53.574;7.770;2022-09-30T07:00:21;3.50;;;2.75;;
45039;SDS011;30778;53.574;7.770;2022-09-30T07:02:47;3.15;;;2.15;;
45039;SDS011;30778;53.574;7.770;2022-09-30T07:05:16;3.28;;;2.70;;
45039;SDS011;30778;53.574;7.770;2022-09-30T07:07:42;3.92;;;2.10;;
45039;SDS011;30778;53.574;7.770;2022-09-30T07:10:08;3.90;;;1.63;;
45039;SDS011;30778;53.574;7.770;2022-09-30T07:12:33;2.38;;;1.73;;
45039;SDS011;30778;53.574;7.770;2022-09-30T07:14:59;1.60;;;0.75;;
45039;SDS011;30778;53.574;7.770;2022-09-30T07:17:27;1.10;;;0.95;;
45039;SDS011;30778;53.574;7.770;2022-09-30T07:19:53;4.07;;;1.30;;
45039;SDS011;30778;53.574;7.770;2022-09-30T07:22:19;1.50;;;1.20;;
45039;SDS011;30778;53.574;7.770;2022-09-30T07:24:58;1.52;;;0.73;;
45039;SDS011;30778;53.574;7.770;2022-09-30T07:27:25;2.85;;;1.73;;
45039;SDS011;30778;53.574;7.770;2022-09-30T07:29:51;7.75;;;5.35;;
45039;SDS011;30778;53.574;7.770;2022-09-30T07:32:17;2.65;;;2.05;;
45039;SDS011;30778;53.574;7.770;2022-09-30T07:34:43;1.98;;;1.55;;
45039;SDS011;30778;53.574;7.770;2022-09-30T07:37:10;1.73;;;1.40;;
45039;SDS011;30778;53.574;7.770;2022-09-30T07:39:38;2.67;;;1.52;;
45039;SDS011;30778;53.574;7.770;2022-09-30T07:42:05;5.40;;;1.60;;
45039;SDS011;30778;53.574;7.770;2022-09-30T07:44:30;3.65;;;1.52;;
45039;SDS011;30778;53.574;7.770;2022-09-30T07:46:56;2.20;;;1.67;;
45039;SDS011;30778;53.574;7.770;2022-09-30T07:49:22;1.80;;;1.35;;
45039;SDS011;30778;53.574;7.770;2022-09-30T07:51:49;2.13;;;0.88;;
45039;SDS011;30778;53.574;7.770;2022-09-30T07:54:18;2.22;;;1.05;;
45039;SDS011;30778;53.574;7.770;2022-09-30T07:56:49;1.20;;;0.80;;
45039;SDS011;30778;53.574;7.770;2022-09-30T07:59:15;5.80;;;1.05;;
45039;SDS011;30778;53.574;7.770;2022-09-30T08:01:42;1.55;;;0.95;;
45039;SDS011;30778;53.574;7.770;2022-09-30T08:04:08;1.60;;;1.13;;
45039;SDS011;30778;53.574;7.770;2022-09-30T08:06:35;2.50;;;1.23;;
45039;SDS011;30778;53.574;7.770;2022-09-30T08:11:33;3.90;;;0.60;;
45039;SDS011;30778;53.574;7.770;2022-09-30T08:13:59;1.90;;;0.68;;
45039;SDS011;30778;53.574;7.770;2022-09-30T08:16:27;6.25;;;1.25;;
45039;SDS011;30778;53.574;7.770;2022-09-30T08:18:53;1.67;;;0.50;;
45039;SDS011;30778;53.574;7.770;2022-09-30T08:21:23;2.33;;;0.60;;
45039;SDS011;30778;53.574;7.770;2022-09-30T08:23:48;1.85;;;1.10;;
45039;SDS011;30778;53.574;7.770;2022-09-30T08:26:14;3.00;;;0.77;;
45039;SDS011;30778;53.574;7.770;2022-09-30T08:28:41;1.48;;;0.75;;
45039;SDS011;30778;53.574;7.770;2022-09-30T08:33:34;2.58;;;1.02;;
45039;SDS011;30778;53.574;7.770;2022-09-30T08:36:01;4.07;;;1.35;;
45039;SDS011;30778;53.574;7.770;2022-09-30T08:38:30;1.15;;;0.70;;
45039;SDS011;30778;53.574;7.770;2022-09-30T08:40:58;3.38;;;1.00;;
45039;SDS011;30778;53.574;7.770;2022-09-30T08:43:39;4.60;;;0.93;;
45039;SDS011;30778;53.574;7.770;2022-09-30T08:46:07;1.92;;;1.02;;
45039;SDS011;30778;53.574;7.770;2022-09-30T08:51:35;1.38;;;0.80;;
45039;SDS011;30778;53.574;7.770;2022-09-30T08:54:08;2.47;;;1.13;;
45039;SDS011;30778;53.574;7.770;2022-09-30T08:56:37;4.63;;;1.65;;
45039;SDS011;30778;53.574;7.770;2022-09-30T08:59:15;4.88;;;1.13;;
45039;SDS011;30778;53.574;7.770;2022-09-30T09:02:01;3.08;;;0.70;;
45039;SDS011;30778;53.574;7.770;2022-09-30T09:04:29;5.97;;;0.90;;
45039;SDS011;30778;53.574;7.770;2022-09-30T09:07:00;3.08;;;1.13;;
45039;SDS011;30778;53.574;7.770;2022-09-30T09:09:50;2.33;;;1.13;;
45039;SDS011;30778;53.574;7.770;2022-09-30T09:15:34;1.52;;;0.65;;
45039;SDS011;30778;53.574;7.770;2022-09-30T09:20:55;3.38;;;0.88;;
45039;SDS011;30778;53.574;7.770;2022-09-30T09:23:24;2.38;;;0.60;;
45039;SDS011;30778;53.574;7.770;2022-09-30T09:25:50;1.98;;;0.35;;
45039;SDS011;30778;53.574;7.770;2022-09-30T09:31:14;1.60;;;0.50;;
45039;SDS011;30778;53.574;7.770;2022-09-30T09:33:43;2.35;;;0.40;;
45039;SDS011;30778;53.574;7.770;2022-09-30T09:41:39;1.38;;;0.47;;
45039;SDS011;30778;53.574;7.770;2022-09-30T09:47:10;2.95;;;0.63;;
45039;SDS011;30778;53.574;7.770;2022-09-30T09:49:45;3.00;;;0.73;;
45039;SDS011;30778;53.574;7.770;2022-09-30T09:55:05;3.88;;;0.68;;
45039;SDS011;30778;53.574;7.770;2022-09-30T09:57:30;2.53;;;0.80;;
45039;SDS011;30778;53.574;7.770;2022-09-30T10:00:00;1.60;;;0.50;;
45039;SDS011;30778;53.574;7.770;2022-09-30T10:05:44;2.38;;;0.85;;
45039;SDS011;30778;53.574;7.770;2022-09-30T10:08:19;0.93;;;0.38;;
45039;SDS011;30778;53.574;7.770;2022-09-30T10:10:52;1.33;;;0.75;;
45039;SDS011;30778;53.574;7.770;2022-09-30T10:13:21;1.83;;;0.60;;
45039;SDS011;30778;53.574;7.770;2022-09-30T10:15:49;1.15;;;0.50;;
45039;SDS011;30778;53.574;7.770;2022-09-30T10:18:22;3.97;;;1.05;;
45039;SDS011;30778;53.574;7.770;2022-09-30T10:20:52;2.33;;;0.90;;
45039;SDS011;30778;53.574;7.770;2022-09-30T10:28:21;1.40;;;0.50;;
45039;SDS011;30778;53.574;7.770;2022-09-30T10:30:50;1.13;;;0.63;;
45039;SDS011;30778;53.574;7.770;2022-09-30T10:35:55;1.05;;;0.45;;
45039;SDS011;30778;53.574;7.770;2022-09-30T10:38:26;1.50;;;0.45;;
45039;SDS011;30778;53.574;7.770;2022-09-30T10:40:53;1.25;;;0.38;;
45039;SDS011;30778;53.574;7.770;2022-09-30T10:43:25;1.08;;;0.28;;
45039;SDS011;30778;53.574;7.770;2022-09-30T10:45:53;0.77;;;0.30;;
45039;SDS011;30778;53.574;7.770;2022-09-30T10:48:20;1.02;;;0.20;;
45039;SDS011;30778;53.574;7.770;2022-09-30T10:50:52;0.80;;;0.40;;
45039;SDS011;30778;53.574;7.770;2022-09-30T10:53:23;1.33;;;0.17;;
45039;SDS011;30778;53.574;7.770;2022-09-30T10:55:54;0.50;;;0.10;;
45039;SDS011;30778;53.574;7.770;2022-09-30T10:58:28;1.00;;;0.15;;
45039;SDS011;30778;53.574;7.770;2022-09-30T11:01:20;0.82;;;0.10;;
45039;SDS011;30778;53.574;7.770;2022-09-30T11:09:00;0.60;;;0.22;;
45039;SDS011;30778;53.574;7.770;2022-09-30T11:11:36;0.80;;;0.10;;
45039;SDS011;30778;53.574;7.770;2022-09-30T11:16:42;0.50;;;0.20;;
45039;SDS011;30778;53.574;7.770;2022-09-30T11:19:21;0.30;;;0.10;;
45039;SDS011;30778;53.574;7.770;2022-09-30T11:21:55;2.40;;;0.40;;
45039;SDS011;30778;53.574;7.770;2022-09-30T11:30:07;1.02;;;0.17;;
45039;SDS011;30778;53.574;7.770;2022-09-30T11:38:46;1.33;;;0.30;;
45039;SDS011;30778;53.574;7.770;2022-09-30T11:58:19;1.10;;;0.32;;
45039;SDS011;30778;53.574;7.770;2022-09-30T12:00:50;1.25;;;0.35;;
45039;SDS011;30778;53.574;7.770;2022-09-30T12:03:29;1.38;;;0.63;;
45039;SDS011;30778;53.574;7.770;2022-09-30T12:06:03;1.55;;;0.43;;
45039;SDS011;30778;53.574;7.770;2022-09-30T12:08:39;1.02;;;0.40;;
45039;SDS011;30778;53.574;7.770;2022-09-30T12:11:15;1.10;;;0.60;;
45039;SDS011;30778;53.574;7.770;2022-09-30T12:16:17;3.42;;;0.30;;
45039;SDS011;30778;53.574;7.770;2022-09-30T12:24:39;1.38;;;0.50;;
45039;SDS011;30778;53.574;7.770;2022-09-30T12:27:29;2.30;;;1.47;;
45039;SDS011;30778;53.574;7.770;2022-09-30T12:29:56;1.15;;;0.30;;
45039;SDS011;30778;53.574;7.770;2022-09-30T12:41:47;0.98;;;0.40;;
45039;SDS011;30778;53.574;7.770;2022-09-30T12:44:44;4.30;;;0.38;;
45039;SDS011;30778;53.574;7.770;2022-09-30T12:49:38;1.48;;;0.35;;
45039;SDS011;30778;53.574;7.770;2022-09-30T12:52:06;0.82;;;0.47;;
45039;SDS011;30778;53.574;7.770;2022-09-30T12:54:39;0.82;;;0.30;;
45039;SDS011;30778;53.574;7.770;2022-09-30T12:57:12;0.88;;;0.20;;
45039;SDS011;30778;53.574;7.770;2022-09-30T12:59:56;1.50;;;0.40;;
45039;SDS011;30778;53.574;7.770;2022-09-30T13:02:36;1.70;;;0.32;;
45039;SDS011;30778;53.574;7.770;2022-09-30T13:13:18;1.65;;;0.20;;
45039;SDS011;30778;53.574;7.770;2022-09-30T13:15:51;0.80;;;0.35;;
45039;SDS011;30778;53.574;7.770;2022-09-30T13:20:55;0.47;;;0.22;;
45039;SDS011;30778;53.574;7.770;2022-09-30T13:23:39;2.00;;;0.30;;
45039;SDS011;30778;53.574;7.770;2022-09-30T13:31:24;1.55;;;0.45;;
45039;SDS011;30778;53.574;7.770;2022-09-30T13:34:11;1.23;;;0.40;;
45039;SDS011;30778;53.574;7.770;2022-09-30T13:42:19;2.15;;;0.40;;
45039;SDS011;30778;53.574;7.770;2022-09-30T13:50:14;3.78;;;0.68;;
45039;SDS011;30778;53.574;7.770;2022-09-30T13:52:51;5.68;;;1.10;;
45039;SDS011;30778;53.574;7.770;2022-09-30T13:55:23;1.60;;;0.60;;
45039;SDS011;30778;53.574;7.770;2022-09-30T14:03:35;0.98;;;0.45;;
45039;SDS011;30778;53.574;7.770;2022-09-30T14:06:18;4.95;;;1.88;;
45039;SDS011;30778;53.574;7.770;2022-09-30T14:17:29;2.00;;;1.42;;
45039;SDS011;30778;53.574;7.770;2022-09-30T14:20:18;2.85;;;1.48;;
45039;SDS011;30778;53.574;7.770;2022-09-30T14:22:47;3.33;;;1.50;;
45039;SDS011;30778;53.574;7.770;2022-09-30T14:25:17;3.08;;;1.55;;
45039;SDS011;30778;53.574;7.770;2022-09-30T14:30:15;4.10;;;2.20;;
45039;SDS011;30778;53.574;7.770;2022-09-30T14:32:54;3.22;;;1.77;;
45039;SDS011;30778;53.574;7.770;2022-09-30T14:35:31;3.05;;;2.47;;
45039;SDS011;30778;53.574;7.770;2022-09-30T14:38:05;4.60;;;2.72;;
45039;SDS011;30778;53.574;7.770;2022-09-30T14:40:38;3.42;;;2.72;;
45039;SDS011;30778;53.574;7.770;2022-09-30T14:43:06;4.03;;;2.28;;
45039;SDS011;30778;53.574;7.770;2022-09-30T14:45:38;4.28;;;3.28;;
45039;SDS011;30778;53.574;7.770;2022-09-30T14:48:08;3.30;;;2.97;;
45039;SDS011;30778;53.574;7.770;2022-09-30T14:55:53;4.97;;;4.10;;
45039;SDS011;30778;53.574;7.770;2022-09-30T14:58:20;6.38;;;3.20;;
45039;SDS011;30778;53.574;7.770;2022-09-30T15:00:56;3.38;;;2.80;;
45039;SDS011;30778;53.574;7.770;2022-09-30T15:03:26;3.85;;;3.45;;
45039;SDS011;30778;53.574;7.770;2022-09-30T15:05:53;5.60;;;3.63;;
45039;SDS011;30778;53.574;7.770;2022-09-30T15:08:19;5.47;;;4.57;;
45039;SDS011;30778;53.574;7.770;2022-09-30T15:10:47;6.13;;;4.32;;
45039;SDS011;30778;53.574;7.770;2022-09-30T15:13:14;4.72;;;4.18;;
45039;SDS011;30778;53.574;7.770;2022-09-30T15:15:41;6.43;;;5.00;;
45039;SDS011;30778;53.574;7.770;2022-09-30T15:21:16;6.47;;;5.20;;
45039;SDS011;30778;53.574;7.770;2022-09-30T15:23:42;6.68;;;5.57;;
45039;SDS011;30778;53.574;7.770;2022-09-30T15:26:11;7.10;;;5.95;;
45039;SDS011;30778;53.574;7.770;2022-09-30T15:28:38;7.97;;;5.95;;
45039;SDS011;30778;53.574;7.770;2022-09-30T15:31:04;7.53;;;5.55;;
45039;SDS011;30778;53.574;7.770;2022-09-30T15:33:30;6.10;;;5.60;;
45039;SDS011;30778;53.574;7.770;2022-09-30T15:36:04;6.90;;;5.10;;
45039;SDS011;30778;53.574;7.770;2022-09-30T15:38:34;10.00;;;6.00;;
45039;SDS011;30778;53.574;7.770;2022-09-30T15:41:06;10.07;;;5.80;;
45039;SDS011;30778;53.574;7.770;2022-09-30T15:43:34;6.50;;;4.80;;
45039;SDS011;30778;53.574;7.770;2022-09-30T15:46:20;5.28;;;4.70;;
45039;SDS011;30778;53.574;7.770;2022-09-30T15:48:52;7.28;;;5.43;;
45039;SDS011;30778;53.574;7.770;2022-09-30T15:51:39;5.97;;;5.13;;
45039;SDS011;30778;53.574;7.770;2022-09-30T15:57:03;6.75;;;4.28;;
45039;SDS011;30778;53.574;7.770;2022-09-30T15:59:59;8.00;;;6.05;;
45039;SDS011;30778;53.574;7.770;2022-09-30T16:02:26;9.00;;;5.80;;
45039;SDS011;30778;53.574;7.770;2022-09-30T16:04:53;7.22;;;6.32;;
45039;SDS011;30778;53.574;7.770;2022-09-30T16:07:19;10.88;;;7.55;;
45039;SDS011;30778;53.574;7.770;2022-09-30T16:09:48;10.63;;;6.40;;
45039;SDS011;30778;53.574;7.770;2022-09-30T16:17:22;11.50;;;5.85;;
45039;SDS011;30778;53.574;7.770;2022-09-30T16:20:00;7.80;;;6.20;;
45039;SDS011;30778;53.574;7.770;2022-09-30T16:27:35;7.47;;;6.35;;
45039;SDS011;30778;53.574;7.770;2022-09-30T16:30:03;7.47;;;6.00;;
45039;SDS011;30778;53.574;7.770;2022-09-30T16:32:32;6.30;;;5.70;;
45039;SDS011;30778;53.574;7.770;2022-09-30T16:35:01;7.75;;;5.80;;
45039;SDS011;30778;53.574;7.770;2022-09-30T16:37:27;6.30;;;5.80;;
45039;SDS011;30778;53.574;7.770;2022-09-30T16:39:54;8.02;;;6.32;;
45039;SDS011;30778;53.574;7.770;2022-09-30T16:42:22;10.65;;;6.95;;
45039;SDS011;30778;53.574;7.770;2022-09-30T16:44:48;8.38;;;6.38;;
45039;SDS011;30778;53.574;7.770;2022-09-30T16:47:14;6.78;;;6.07;;
45039;SDS011;30778;53.574;7.770;2022-09-30T16:49:42;8.10;;;6.18;;
45039;SDS011;30778;53.574;7.770;2022-09-30T16:52:09;10.13;;;6.63;;
45039;SDS011;30778;53.574;7.770;2022-09-30T16:54:35;7.63;;;5.78;;
45039;SDS011;30778;53.574;7.770;2022-09-30T16:57:02;11.82;;;6.63;;
45039;SDS011;30778;53.574;7.770;2022-09-30T16:59:28;9.43;;;6.85;;
45039;SDS011;30778;53.574;7.770;2022-09-30T17:01:55;11.05;;;7.28;;
45039;SDS011;30778;53.574;7.770;2022-09-30T17:04:23;12.98;;;8.57;;
45039;SDS011;30778;53.574;7.770;2022-09-30T17:06:49;8.02;;;7.22;;
45039;SDS011;30778;53.574;7.770;2022-09-30T17:09:14;8.82;;;7.38;;
45039;SDS011;30778;53.574;7.770;2022-09-30T17:11:40;8.93;;;8.02;;
45039;SDS011;30778;53.574;7.770;2022-09-30T17:14:06;10.23;;;7.43;;
45039;SDS011;30778;53.574;7.770;2022-09-30T17:16:31;10.73;;;6.97;;
45039;SDS011;30778;53.574;7.770;2022-09-30T17:18:57;8.52;;;7.15;;
45039;SDS011;30778;53.574;7.770;2022-09-30T17:21:23;11.45;;;7.20;;
45039;SDS011;30778;53.574;7.770;2022-09-30T17:23:50;9.93;;;7.45;;
45039;SDS011;30778;53.574;7.770;2022-09-30T17:26:17;13.13;;;8.43;;
45039;SDS011;30778;53.574;7.770;2022-09-30T17:28:42;10.88;;;8.48;;
45039;SDS011;30778;53.574;7.770;2022-09-30T17:31:09;10.18;;;8.68;;
45039;SDS011;30778;53.574;7.770;2022-09-30T17:33:38;9.43;;;8.32;;
45039;SDS011;30778;53.574;7.770;2022-09-30T17:36:06;10.70;;;9.27;;
45039;SDS011;30778;53.574;7.770;2022-09-30T17:38:34;13.82;;;10.65;;
45039;SDS011;30778;53.574;7.770;2022-09-30T17:41:01;14.60;;;9.10;;
45039;SDS011;30778;53.574;7.770;2022-09-30T17:43:48;10.27;;;8.68;;
45039;SDS011;30778;53.574;7.770;2022-09-30T17:46:14;13.38;;;9.18;;
45039;SDS011;30778;53.574;7.770;2022-09-30T17:48:43;14.68;;;11.05;;
45039;SDS011;30778;53.574;7.770;2022-09-30T17:51:11;11.15;;;10.05;;
45039;SDS011;30778;53.574;7.770;2022-09-30T17:53:37;11.73;;;8.98;;
45039;SDS011;30778;53.574;7.770;2022-09-30T17:56:06;10.07;;;8.20;;
45039;SDS011;30778;53.574;7.770;2022-09-30T17:58:50;8.88;;;7.50;;
45039;SDS011;30778;53.574;7.770;2022-09-30T18:01:17;8.88;;;7.32;;
45039;SDS011;30778;53.574;7.770;2022-09-30T18:03:44;8.77;;;7.53;;
45039;SDS011;30778;53.574;7.770;2022-09-30T18:06:10;9.07;;;7.43;;
45039;SDS011;30778;53.574;7.770;2022-09-30T18:08:38;10.07;;;7.50;;
45039;SDS011;30778;53.574;7.770;2022-09-30T18:11:05;8.95;;;7.22;;
45039;SDS011;30778;53.574;7.770;2022-09-30T18:13:30;10.93;;;7.32;;
45039;SDS011;30778;53.574;7.770;2022-09-30T18:15:56;10.70;;;6.43;;
45039;SDS011;30778;53.574;7.770;2022-09-30T18:18:26;7.95;;;6.93;;
45039;SDS011;30778;53.574;7.770;2022-09-30T18:20:53;8.70;;;7.53;;
45039;SDS011;30778;53.574;7.770;2022-09-30T18:23:19;9.63;;;7.20;;
45039;SDS011;30778;53.574;7.770;2022-09-30T18:25:46;8.32;;;7.15;;
45039;SDS011;30778;53.574;7.770;2022-09-30T18:28:14;8.82;;;6.88;;
45039;SDS011;30778;53.574;7.770;2022-09-30T18:30:40;10.88;;;8.15;;
45039;SDS011;30778;53.574;7.770;2022-09-30T18:33:06;9.15;;;7.97;;
45039;SDS011;30778;53.574;7.770;2022-09-30T18:35:36;11.05;;;7.97;;
45039;SDS011;30778;53.574;7.770;2022-09-30T18:38:03;9.07;;;8.10;;
45039;SDS011;30778;53.574;7.770;2022-09-30T18:40:32;10.00;;;7.03;;
45039;SDS011;30778;53.574;7.770;2022-09-30T18:42:58;9.55;;;7.47;;
45039;SDS011;30778;53.574;7.770;2022-09-30T18:45:29;8.82;;;7.65;;
45039;SDS011;30778;53.574;7.770;2022-09-30T18:47:58;8.80;;;7.55;;
45039;SDS011;30778;53.574;7.770;2022-09-30T18:50:26;9.93;;;8.27;;